createdAt,value
2022-10-13T00:00:15.332Z,7.50
2022-10-13T00:02:42.244Z,7.90
2022-10-13T00:05:10.020Z,7.07
2022-10-13T00:07:38.237Z,8.10
2022-10-13T00:10:06.005Z,7.77
2022-10-13T00:12:34.983Z,7.60
2022-10-13T00:15:02.482Z,7.87
2022-10-13T00:17:29.616Z,8.10
2022-10-13T00:19:56.935Z,7.83
2022-10-13T00:22:23.897Z,7.97
2022-10-13T00:24:53.056Z,7.93
2022-10-13T00:27:20.056Z,8.20
2022-10-13T00:29:47.171Z,8.33
2022-10-13T00:32:14.123Z,7.93
2022-10-13T00:34:42.123Z,7.57
2022-10-13T00:37:09.034Z,8.23
2022-10-13T00:39:37.496Z,8.60
2022-10-13T00:42:09.851Z,7.67
2022-10-13T00:45:01.509Z,8.20
2022-10-13T00:47:33.201Z,8.03
2022-10-13T00:50:01.754Z,8.03
2022-10-13T00:52:30.584Z,7.90
2022-10-13T00:54:59.558Z,8.10
2022-10-13T00:57:28.129Z,8.13
2022-10-13T00:59:55.792Z,7.97
2022-10-13T01:02:23.881Z,7.87
2022-10-13T01:04:52.647Z,8.23
2022-10-13T01:07:19.992Z,8.13
2022-10-13T01:09:47.273Z,7.93
2022-10-13T01:12:26.331Z,8.40
2022-10-13T01:15:02.618Z,7.43
2022-10-13T01:17:36.862Z,8.53
2022-10-13T01:20:30.733Z,7.93
2022-10-13T01:23:14.356Z,7.63
2022-10-13T01:26:06.429Z,8.00
2022-10-13T01:28:49.717Z,7.80
2022-10-13T01:31:24.772Z,7.73
2022-10-13T01:33:58.684Z,8.47
2022-10-13T01:36:32.103Z,8.30
2022-10-13T01:39:06.978Z,9.37
2022-10-13T01:41:37.915Z,8.60
2022-10-13T01:44:16.082Z,8.90
2022-10-13T01:46:47.599Z,8.10
2022-10-13T01:49:18.244Z,8.77
2022-10-13T01:51:46.913Z,8.23
2022-10-13T01:54:13.879Z,8.80
2022-10-13T01:56:41.192Z,8.90
2022-10-13T01:59:11.550Z,8.73
2022-10-13T02:01:53.749Z,8.70
2022-10-13T02:04:30.019Z,8.73
2022-10-13T02:07:04.535Z,8.37
2022-10-13T02:09:39.937Z,8.40
2022-10-13T02:12:12.472Z,8.80
2022-10-13T02:14:42.490Z,9.07
2022-10-13T02:17:11.382Z,9.70
2022-10-13T02:19:39.935Z,8.50
2022-10-13T02:22:08.619Z,9.10
2022-10-13T02:24:35.988Z,9.17
2022-10-13T02:27:05.509Z,8.77
2022-10-13T02:29:32.732Z,9.13
2022-10-13T02:32:00.411Z,9.57
2022-10-13T02:34:28.770Z,9.70
2022-10-13T02:36:55.924Z,8.77
2022-10-13T02:39:22.817Z,9.80
2022-10-13T02:41:51.019Z,9.17
2022-10-13T02:44:17.882Z,8.80
2022-10-13T02:46:45.088Z,8.60
2022-10-13T02:49:12.228Z,9.13
2022-10-13T02:51:40.765Z,9.30
2022-10-13T02:54:08.048Z,9.40
2022-10-13T02:56:35.353Z,9.43
2022-10-13T02:59:02.281Z,9.27
2022-10-13T03:01:29.723Z,9.33
2022-10-13T03:03:56.642Z,10.13
2022-10-13T03:06:23.896Z,9.83
2022-10-13T03:08:52.173Z,9.57
2022-10-13T03:11:19.475Z,9.20
2022-10-13T03:13:46.373Z,8.37
2022-10-13T03:16:13.671Z,9.07
2022-10-13T03:18:40.544Z,8.73
2022-10-13T03:21:08.332Z,9.27
2022-10-13T03:23:35.214Z,9.53
2022-10-13T03:26:04.901Z,9.97
2022-10-13T03:28:31.884Z,9.93
2022-10-13T03:31:03.772Z,9.67
2022-10-13T03:33:30.683Z,9.90
2022-10-13T03:36:00.639Z,10.63
2022-10-13T03:38:27.657Z,10.63
2022-10-13T03:40:55.031Z,9.87
2022-10-13T03:43:23.620Z,10.73
2022-10-13T03:45:56.194Z,10.70
2022-10-13T03:48:23.219Z,10.50
2022-10-13T03:50:52.099Z,9.73
2022-10-13T03:53:20.064Z,10.67
2022-10-13T03:55:50.383Z,10.30
2022-10-13T03:58:17.545Z,10.77
2022-10-13T04:00:46.238Z,10.97
2022-10-13T04:03:13.600Z,11.40
2022-10-13T04:05:41.107Z,10.57
2022-10-13T04:08:08.101Z,10.67
2022-10-13T04:10:35.676Z,11.27
2022-10-13T04:13:02.760Z,11.37
2022-10-13T04:15:30.399Z,11.03
2022-10-13T04:17:58.622Z,11.57
2022-10-13T04:20:25.818Z,13.00
2022-10-13T04:22:52.692Z,11.70
2022-10-13T04:25:20.157Z,12.07
2022-10-13T04:27:48.266Z,11.90
2022-10-13T04:30:15.688Z,12.70
2022-10-13T04:32:42.591Z,12.50
2022-10-13T04:35:11.387Z,13.77
2022-10-13T04:37:41.617Z,15.10
2022-10-13T04:40:12.608Z,14.83
2022-10-13T04:42:39.522Z,14.10
2022-10-13T04:45:08.283Z,15.07
2022-10-13T04:47:37.210Z,13.20
2022-10-13T04:50:05.186Z,13.30
2022-10-13T04:52:34.262Z,13.63
2022-10-13T04:55:01.622Z,13.17
2022-10-13T04:57:28.557Z,11.40
2022-10-13T04:59:55.710Z,12.57
2022-10-13T05:02:22.669Z,13.87
2022-10-13T05:04:49.926Z,13.17
2022-10-13T05:07:18.226Z,13.90
2022-10-13T05:09:47.470Z,13.43
2022-10-13T05:12:15.146Z,13.83
2022-10-13T05:14:42.375Z,13.63
2022-10-13T05:17:09.314Z,14.83
2022-10-13T05:19:36.909Z,14.10
2022-10-13T05:22:04.269Z,15.30
2022-10-13T05:24:36.492Z,14.93
2022-10-13T05:27:07.511Z,14.67
2022-10-13T05:29:34.702Z,14.00
2022-10-13T05:32:01.945Z,14.97
2022-10-13T05:34:29.165Z,14.43
2022-10-13T05:36:56.549Z,15.20
2022-10-13T05:39:23.825Z,15.03
2022-10-13T05:41:50.662Z,14.80
2022-10-13T05:44:19.963Z,15.30
2022-10-13T05:46:46.827Z,14.03
2022-10-13T05:49:13.727Z,14.00
2022-10-13T05:51:45.163Z,15.33
2022-10-13T05:54:16.034Z,15.13
2022-10-13T05:56:47.796Z,15.27
2022-10-13T05:59:21.362Z,15.83
2022-10-13T06:01:51.204Z,15.07
2022-10-13T06:04:21.255Z,16.13
2022-10-13T06:06:49.059Z,16.00
2022-10-13T06:09:16.794Z,16.80
2022-10-13T06:11:43.738Z,16.93
2022-10-13T06:14:10.621Z,17.90
2022-10-13T06:16:39.305Z,17.70
2022-10-13T06:19:06.249Z,16.93
2022-10-13T06:21:35.788Z,17.77
2022-10-13T06:24:02.787Z,18.40
2022-10-13T06:26:30.462Z,17.17
2022-10-13T06:28:59.711Z,18.00
2022-10-13T06:31:27.432Z,17.93
2022-10-13T06:33:55.609Z,17.73
2022-10-13T06:36:22.792Z,18.67
2022-10-13T06:38:50.105Z,17.40
2022-10-13T06:41:17.529Z,17.93
2022-10-13T06:43:44.543Z,18.50
2022-10-13T06:46:12.484Z,17.87
2022-10-13T06:48:39.637Z,17.93
2022-10-13T06:51:11.105Z,17.97
2022-10-13T06:53:38.205Z,18.33
2022-10-13T06:56:07.285Z,18.37
2022-10-13T06:58:34.515Z,17.90
2022-10-13T07:01:01.810Z,18.50
2022-10-13T07:03:28.753Z,18.03
2022-10-13T07:06:00.103Z,18.67
2022-10-13T07:08:28.214Z,17.90
2022-10-13T07:10:55.323Z,17.77
2022-10-13T07:15:54.194Z,19.17
2022-10-13T07:18:21.397Z,18.63
2022-10-13T07:20:48.471Z,19.63
2022-10-13T07:23:15.314Z,19.17
2022-10-13T07:25:43.780Z,18.17
2022-10-13T07:28:10.721Z,18.23
2022-10-13T07:30:39.595Z,17.40
2022-10-13T07:33:06.487Z,18.53
2022-10-13T07:35:33.745Z,18.87
2022-10-13T07:38:00.622Z,18.83
2022-10-13T07:40:27.570Z,18.50
2022-10-13T07:42:57.393Z,18.83
2022-10-13T07:45:24.879Z,19.17
2022-10-13T07:47:51.764Z,18.40
2022-10-13T07:50:19.328Z,18.47
2022-10-13T07:52:46.267Z,18.70
2022-10-13T07:55:13.569Z,18.73
2022-10-13T07:57:40.567Z,18.23
2022-10-13T08:00:11.472Z,18.50
2022-10-13T08:02:38.305Z,18.60
2022-10-13T08:05:06.486Z,17.87
2022-10-13T08:07:33.324Z,18.20
2022-10-13T08:10:00.637Z,18.50
2022-10-13T08:12:27.536Z,18.23
2022-10-13T08:14:54.640Z,18.90
2022-10-13T08:17:23.027Z,19.23
2022-10-13T08:19:51.932Z,19.00
2022-10-13T08:22:19.158Z,18.80
2022-10-13T08:24:46.304Z,17.97
2022-10-13T08:27:20.655Z,18.67
2022-10-13T08:29:48.451Z,17.77
2022-10-13T08:32:15.333Z,18.33
2022-10-13T08:34:43.783Z,18.20
2022-10-13T08:37:13.899Z,18.40
2022-10-13T08:39:41.239Z,18.33
2022-10-13T08:42:14.834Z,18.90
2022-10-13T08:47:42.430Z,19.53
2022-10-13T08:50:15.600Z,17.77
2022-10-13T08:52:49.077Z,16.60
2022-10-13T08:55:35.883Z,18.37
2022-10-13T08:58:09.940Z,21.53
2022-10-13T09:00:38.633Z,17.90
2022-10-13T09:03:20.806Z,16.93
2022-10-13T09:06:02.706Z,16.63
2022-10-13T09:08:36.664Z,16.83
2022-10-13T09:11:03.535Z,16.97
2022-10-13T09:13:30.939Z,16.10
2022-10-13T09:15:58.332Z,15.90
2022-10-13T09:18:30.691Z,15.73
2022-10-13T09:21:17.085Z,14.70
2022-10-13T09:23:44.285Z,16.40
2022-10-13T09:26:18.733Z,14.93
2022-10-13T09:28:46.436Z,15.00
2022-10-13T09:31:18.773Z,14.63
2022-10-13T09:33:46.700Z,15.73
2022-10-13T09:36:16.330Z,14.83
2022-10-13T09:39:04.164Z,13.40
2022-10-13T09:41:31.215Z,13.80
2022-10-13T09:44:01.747Z,13.17
2022-10-13T09:46:33.031Z,13.33
2022-10-13T09:49:06.955Z,13.50
2022-10-13T09:51:38.907Z,12.27
2022-10-13T09:54:07.713Z,12.80
2022-10-13T09:56:40.010Z,13.37
2022-10-13T09:59:15.108Z,12.87
2022-10-13T10:01:45.157Z,12.80
2022-10-13T10:04:16.464Z,11.07
2022-10-13T10:06:46.696Z,11.43
2022-10-13T10:09:35.353Z,10.37
2022-10-13T10:12:04.315Z,9.83
2022-10-13T10:14:32.751Z,9.73
2022-10-13T10:17:07.679Z,9.93
2022-10-13T10:19:50.966Z,10.03
2022-10-13T10:22:28.356Z,8.97
2022-10-13T10:25:10.048Z,8.47
2022-10-13T10:27:43.776Z,9.37
2022-10-13T10:30:16.439Z,8.70
2022-10-13T10:32:53.126Z,8.77
2022-10-13T10:35:29.501Z,8.40
2022-10-13T10:38:09.089Z,8.17
2022-10-13T10:40:43.620Z,8.53
2022-10-13T10:43:26.535Z,8.77
2022-10-13T10:45:56.660Z,8.33
2022-10-13T10:48:27.452Z,7.63
2022-10-13T10:50:54.726Z,7.90
2022-10-13T10:53:32.150Z,7.23
2022-10-13T10:56:04.582Z,6.73
2022-10-13T10:58:41.304Z,6.60
2022-10-13T11:01:19.410Z,7.50
2022-10-13T11:03:54.343Z,6.43
2022-10-13T11:06:37.251Z,7.20
2022-10-13T11:09:06.539Z,6.03
2022-10-13T11:11:41.184Z,6.40
2022-10-13T11:14:27.959Z,6.20
2022-10-13T11:17:28.139Z,6.13
2022-10-13T11:19:55.873Z,6.60
2022-10-13T11:22:27.283Z,6.43
2022-10-13T11:25:01.620Z,6.57
2022-10-13T11:27:40.962Z,6.33
2022-10-13T11:30:41.020Z,6.73
2022-10-13T11:33:37.125Z,6.07
2022-10-13T11:36:35.335Z,5.70
2022-10-13T11:42:16.522Z,6.00
2022-10-13T11:44:53.343Z,5.83
2022-10-13T11:47:42.247Z,6.27
2022-10-13T11:50:19.043Z,6.10
2022-10-13T11:53:01.685Z,6.13
2022-10-13T11:55:39.731Z,5.57
2022-10-13T11:58:16.633Z,6.23
2022-10-13T12:00:56.205Z,6.70
2022-10-13T12:03:27.593Z,6.53
2022-10-13T12:05:58.179Z,6.80
2022-10-13T12:08:27.668Z,7.03
2022-10-13T12:10:57.260Z,5.87
2022-10-13T12:13:28.216Z,5.70
2022-10-13T12:16:02.994Z,6.83
2022-10-13T12:18:34.364Z,6.37
2022-10-13T12:21:03.643Z,6.17
2022-10-13T12:23:32.870Z,6.37
2022-10-13T12:26:00.589Z,5.93
2022-10-13T12:28:31.788Z,6.20
2022-10-13T12:31:00.099Z,6.20
2022-10-13T12:33:32.336Z,5.53
2022-10-13T12:36:12.930Z,5.70
2022-10-13T12:38:45.964Z,6.03
2022-10-13T12:41:16.997Z,6.00
2022-10-13T12:43:46.718Z,6.40
2022-10-13T12:46:33.610Z,6.40
2022-10-13T12:49:05.015Z,6.63
2022-10-13T12:51:31.994Z,6.15
2022-10-13T12:53:59.194Z,5.50
2022-10-13T12:56:29.040Z,6.15
2022-10-13T12:58:59.438Z,6.70
2022-10-13T13:01:29.868Z,6.87
2022-10-13T13:03:59.868Z,7.45
2022-10-13T13:06:37.972Z,7.73
2022-10-13T13:09:30.016Z,6.87
2022-10-13T13:12:26.700Z,6.82
2022-10-13T13:14:56.049Z,6.85
2022-10-13T13:17:52.849Z,7.60
2022-10-13T13:20:25.757Z,6.85
2022-10-13T13:22:53.308Z,7.35
2022-10-13T13:25:20.497Z,7.87
2022-10-13T13:27:47.898Z,7.28
2022-10-13T13:30:18.772Z,6.88
2022-10-13T13:32:46.230Z,6.20
2022-10-13T13:35:13.752Z,7.00
2022-10-13T13:37:43.626Z,6.43
2022-10-13T13:40:15.785Z,6.22
2022-10-13T13:42:43.209Z,6.60
2022-10-13T13:45:13.207Z,6.57
2022-10-13T13:47:42.887Z,6.80
2022-10-13T13:50:16.450Z,6.47
2022-10-13T13:52:43.577Z,6.32
2022-10-13T13:55:10.582Z,6.80
2022-10-13T13:57:37.963Z,6.40
2022-10-13T14:00:06.444Z,6.70
2022-10-13T14:02:33.672Z,6.60
2022-10-13T14:05:01.932Z,5.80
2022-10-13T14:07:29.191Z,6.35
2022-10-13T14:09:59.253Z,5.75
2022-10-13T14:12:29.850Z,5.80
2022-10-13T14:14:59.691Z,6.32
2022-10-13T14:17:26.684Z,6.03
2022-10-13T14:19:53.934Z,6.32
2022-10-13T14:22:22.868Z,5.70
2022-10-13T14:24:50.605Z,4.85
2022-10-13T14:27:17.546Z,5.30
2022-10-13T14:29:44.904Z,4.65
2022-10-13T14:32:12.159Z,4.88
2022-10-13T14:34:39.538Z,4.30
2022-10-13T14:37:06.550Z,4.75
2022-10-13T14:39:35.080Z,4.97
2022-10-13T14:42:02.152Z,4.30
2022-10-13T14:44:29.507Z,4.53
2022-10-13T14:46:56.400Z,4.20
2022-10-13T14:49:23.639Z,4.53
2022-10-13T14:51:50.537Z,3.95
2022-10-13T14:54:18.208Z,4.78
2022-10-13T14:56:46.769Z,4.75
2022-10-13T14:59:14.026Z,4.78
2022-10-13T15:01:43.953Z,4.65
2022-10-13T15:04:11.564Z,4.43
2022-10-13T15:06:39.550Z,4.35
2022-10-13T15:11:39.398Z,3.88
2022-10-13T15:14:10.755Z,3.78
2022-10-13T15:16:37.888Z,4.40
2022-10-13T15:19:05.859Z,4.45
2022-10-13T15:21:32.776Z,4.30
2022-10-13T15:24:00.106Z,3.70
2022-10-13T15:26:27.137Z,4.25
2022-10-13T15:28:54.729Z,4.10
2022-10-13T15:31:23.872Z,3.77
2022-10-13T15:33:52.691Z,4.37
2022-10-13T15:36:20.748Z,4.50
2022-10-13T15:38:48.142Z,4.27
2022-10-13T15:41:16.071Z,4.60
2022-10-13T15:43:43.663Z,4.47
2022-10-13T15:46:12.511Z,4.67
2022-10-13T15:48:41.244Z,4.60
2022-10-13T15:51:13.479Z,4.87
2022-10-13T15:53:40.588Z,5.17
2022-10-13T15:56:08.636Z,4.63
2022-10-13T15:58:35.716Z,4.70
2022-10-13T16:01:07.143Z,5.60
2022-10-13T16:03:34.575Z,4.90
2022-10-13T16:06:06.197Z,5.20
2022-10-13T16:08:36.215Z,5.03
2022-10-13T16:11:07.666Z,5.10
2022-10-13T16:13:34.941Z,5.40
2022-10-13T16:16:01.976Z,5.07
2022-10-13T16:18:29.942Z,4.87
2022-10-13T16:20:56.879Z,4.60
2022-10-13T16:23:26.080Z,5.30
2022-10-13T16:25:53.591Z,5.73
2022-10-13T16:28:20.987Z,5.70
2022-10-13T16:30:48.056Z,5.37
2022-10-13T16:33:15.314Z,5.57
2022-10-13T16:35:42.167Z,5.50
2022-10-13T16:38:09.415Z,6.00
2022-10-13T16:40:39.301Z,5.60
2022-10-13T16:43:06.567Z,5.73
2022-10-13T16:45:54.962Z,5.70
2022-10-13T16:48:20.619Z,5.83
2022-10-13T16:50:47.470Z,5.50
2022-10-13T16:53:14.764Z,5.53
2022-10-13T16:55:43.160Z,5.70
2022-10-13T16:58:10.978Z,7.07
2022-10-13T17:00:38.117Z,6.47
2022-10-13T17:03:05.466Z,6.00
2022-10-13T17:05:33.060Z,6.57
2022-10-13T17:08:02.021Z,7.00
2022-10-13T17:10:29.067Z,6.47
2022-10-13T17:12:57.770Z,6.57
2022-10-13T17:15:24.649Z,6.63
2022-10-13T17:17:51.947Z,7.30
2022-10-13T17:20:18.929Z,7.67
2022-10-13T17:22:46.276Z,7.53
2022-10-13T17:25:13.461Z,7.93
2022-10-13T17:27:41.072Z,7.87
2022-10-13T17:30:11.149Z,9.00
2022-10-13T17:32:39.124Z,7.80
2022-10-13T17:35:06.831Z,7.53
2022-10-13T17:37:34.286Z,8.23
2022-10-13T17:40:01.340Z,9.70
2022-10-13T17:42:50.387Z,9.10
2022-10-13T17:45:19.344Z,9.20
2022-10-13T17:47:48.920Z,9.13
2022-10-13T17:50:16.345Z,9.37
2022-10-13T17:52:43.660Z,9.27
2022-10-13T17:55:10.810Z,8.77
2022-10-13T17:57:38.100Z,8.90
2022-10-13T18:00:06.403Z,8.70
2022-10-13T18:02:34.904Z,9.27
2022-10-13T18:05:01.751Z,8.53
2022-10-13T18:07:28.950Z,8.60
2022-10-13T18:09:55.910Z,8.70
2022-10-13T18:12:23.475Z,8.87
2022-10-13T18:14:50.659Z,9.73
2022-10-13T18:17:18.142Z,9.43
2022-10-13T18:19:48.395Z,9.50
2022-10-13T18:22:15.586Z,9.83
2022-10-13T18:24:42.439Z,9.77
2022-10-13T18:27:10.131Z,9.67
2022-10-13T18:29:37.101Z,9.20
2022-10-13T18:32:04.663Z,9.43
2022-10-13T18:34:31.530Z,9.70
2022-10-13T18:37:00.264Z,10.47
2022-10-13T18:39:28.710Z,10.57
2022-10-13T18:41:57.460Z,9.87
2022-10-13T18:44:25.069Z,9.43
2022-10-13T18:46:54.107Z,9.73
2022-10-13T18:49:30.821Z,10.10
2022-10-13T18:52:00.289Z,9.33
2022-10-13T18:54:28.720Z,9.70
2022-10-13T18:56:56.155Z,9.63
2022-10-13T18:59:23.243Z,9.77
2022-10-13T19:01:50.619Z,9.93
2022-10-13T19:04:17.650Z,10.00
2022-10-13T19:06:45.143Z,11.40
2022-10-13T19:09:14.969Z,10.57
2022-10-13T19:11:42.259Z,11.27
2022-10-13T19:14:12.640Z,11.30
2022-10-13T19:16:42.075Z,11.17
2022-10-13T19:19:09.262Z,10.93
2022-10-13T19:21:37.911Z,11.07
2022-10-13T19:24:06.605Z,10.23
2022-10-13T19:26:35.913Z,10.50
2022-10-13T19:29:05.272Z,10.07
2022-10-13T19:31:33.924Z,10.30
2022-10-13T19:34:01.130Z,11.13
2022-10-13T19:36:31.949Z,10.70
2022-10-13T19:38:59.821Z,10.67
2022-10-13T19:41:29.589Z,10.67
2022-10-13T19:43:58.090Z,11.17
2022-10-13T19:46:25.464Z,11.13
2022-10-13T19:48:52.407Z,11.27
2022-10-13T19:51:19.730Z,11.17
2022-10-13T19:53:46.632Z,11.30
2022-10-13T19:56:23.020Z,11.60
2022-10-13T19:58:50.703Z,11.40
2022-10-13T20:01:20.133Z,11.03
2022-10-13T20:03:47.689Z,10.63
2022-10-13T20:06:15.865Z,11.53
2022-10-13T20:08:42.950Z,11.83
2022-10-13T20:11:13.314Z,11.70
2022-10-13T20:13:40.255Z,11.97
2022-10-13T20:16:09.200Z,11.57
2022-10-13T20:18:37.677Z,11.90
2022-10-13T20:21:05.462Z,11.53
2022-10-13T20:23:33.588Z,12.13
2022-10-13T20:26:02.799Z,12.90
2022-10-13T20:28:31.383Z,12.30
2022-10-13T20:31:00.815Z,11.47
2022-10-13T20:33:28.325Z,11.67
2022-10-13T20:36:00.148Z,12.57
2022-10-13T20:38:29.483Z,12.23
2022-10-13T20:41:03.800Z,11.93
2022-10-13T20:43:31.209Z,12.77
2022-10-13T20:46:02.008Z,12.37
2022-10-13T20:48:51.035Z,12.97
2022-10-13T20:51:22.096Z,12.80
2022-10-13T20:53:49.264Z,13.40
2022-10-13T20:56:18.447Z,12.00
2022-10-13T20:58:45.576Z,13.03
2022-10-13T21:01:12.930Z,13.23
2022-10-13T21:03:40.667Z,12.80
2022-10-13T21:06:09.640Z,13.80
2022-10-13T21:08:38.414Z,14.10
2022-10-13T21:11:07.171Z,13.37
2022-10-13T21:13:34.848Z,14.07
2022-10-13T21:16:06.944Z,13.70
2022-10-13T21:18:34.304Z,13.37
2022-10-13T21:21:05.298Z,14.23
2022-10-13T21:23:32.480Z,14.27
2022-10-13T21:26:03.706Z,14.70
2022-10-13T21:28:31.155Z,15.00
2022-10-13T21:31:02.964Z,13.80
2022-10-13T21:33:29.971Z,13.90
2022-10-13T21:35:57.187Z,13.63
2022-10-13T21:38:24.819Z,13.00
2022-10-13T21:40:53.995Z,13.17
2022-10-13T21:43:22.757Z,14.10
2022-10-13T21:45:49.598Z,13.63
2022-10-13T21:48:16.799Z,13.37
2022-10-13T21:50:43.798Z,13.73
2022-10-13T21:53:10.976Z,14.37
2022-10-13T21:55:37.894Z,14.53
2022-10-13T21:58:05.549Z,13.37
2022-10-13T22:00:33.882Z,15.17
2022-10-13T22:03:01.054Z,14.73
2022-10-13T22:05:27.926Z,14.60
2022-10-13T22:07:54.951Z,16.40
2022-10-13T22:10:21.818Z,16.00
2022-10-13T22:12:48.969Z,16.10
2022-10-13T22:15:15.890Z,17.33
2022-10-13T22:17:44.401Z,16.03
2022-10-13T22:20:11.241Z,16.23
2022-10-13T22:22:38.603Z,16.23
2022-10-13T22:25:06.613Z,16.07
2022-10-13T22:27:33.836Z,16.17
2022-10-13T22:30:00.661Z,16.57
2022-10-13T22:32:27.954Z,16.33
2022-10-13T22:34:56.105Z,15.97
2022-10-13T22:37:23.724Z,16.10
2022-10-13T22:39:51.698Z,16.70
2022-10-13T22:42:18.934Z,15.90
2022-10-13T22:44:45.833Z,15.00
2022-10-13T22:47:13.094Z,14.67
2022-10-13T22:49:39.906Z,14.03
2022-10-13T22:52:08.627Z,14.97
2022-10-13T22:54:35.545Z,15.30
2022-10-13T22:57:03.069Z,14.67
2022-10-13T22:59:29.970Z,14.90
2022-10-13T23:01:57.217Z,14.33
2022-10-13T23:04:24.075Z,15.17
2022-10-13T23:06:51.423Z,14.37
2022-10-13T23:09:19.594Z,14.97
2022-10-13T23:11:46.737Z,15.10
2022-10-13T23:14:13.524Z,15.20
2022-10-13T23:16:40.709Z,15.67
2022-10-13T23:19:07.574Z,15.07
2022-10-13T23:21:34.737Z,15.20
2022-10-13T23:24:04.221Z,15.50
2022-10-13T23:26:34.196Z,15.67
2022-10-13T23:29:01.775Z,15.87
2022-10-13T23:31:29.564Z,16.40
2022-10-13T23:33:57.264Z,14.87
2022-10-13T23:36:26.284Z,16.37
2022-10-13T23:38:57.035Z,15.83
2022-10-13T23:41:25.007Z,16.87
2022-10-13T23:43:53.319Z,16.03
2022-10-13T23:46:20.696Z,17.27
2022-10-13T23:48:47.717Z,17.03
2022-10-13T23:51:17.649Z,17.43
2022-10-13T23:53:44.956Z,17.20
2022-10-13T23:56:13.163Z,17.43
2022-10-13T23:58:42.103Z,17.07
